createdAt,value
2022-10-05T00:00:38.729Z,13.56
2022-10-05T00:03:10.829Z,13.42
2022-10-05T00:05:38.597Z,13.26
2022-10-05T00:08:16.728Z,13.30
2022-10-05T00:10:45.543Z,13.21
2022-10-05T00:13:25.548Z,13.05
2022-10-05T00:16:07.890Z,12.97
2022-10-05T00:18:35.952Z,13.23
2022-10-05T00:21:12.926Z,13.27
2022-10-05T00:23:41.032Z,13.24
2022-10-05T00:26:16.927Z,13.08
2022-10-05T00:28:44.973Z,13.15
2022-10-05T00:31:21.718Z,13.09
2022-10-05T00:33:51.041Z,13.13
2022-10-05T00:36:18.790Z,12.59
2022-10-05T00:38:46.425Z,12.78
2022-10-05T00:41:22.036Z,12.73
2022-10-05T00:43:55.576Z,12.83
2022-10-05T00:46:30.754Z,12.59
2022-10-05T00:49:13.410Z,12.71
2022-10-05T00:51:43.389Z,12.96
2022-10-05T00:54:34.500Z,12.96
2022-10-05T00:57:29.630Z,13.09
2022-10-05T01:00:03.815Z,12.98
2022-10-05T01:02:37.687Z,13.07
2022-10-05T01:05:20.460Z,13.05
2022-10-05T01:07:54.419Z,13.12
2022-10-05T01:10:33.652Z,13.15
2022-10-05T01:13:04.359Z,13.11
2022-10-05T01:16:10.374Z,13.02
2022-10-05T01:18:53.295Z,12.95
2022-10-05T01:21:25.139Z,12.94
2022-10-05T01:24:17.837Z,12.97
2022-10-05T01:27:07.262Z,12.55
2022-10-05T01:29:49.985Z,12.49
2022-10-05T01:32:35.567Z,12.72
2022-10-05T01:35:15.263Z,12.57
2022-10-05T01:38:04.607Z,12.73
2022-10-05T01:40:54.709Z,12.72
2022-10-05T01:43:25.025Z,12.66
2022-10-05T01:46:25.538Z,12.62
2022-10-05T01:49:12.164Z,12.64
2022-10-05T01:52:04.219Z,12.65
2022-10-05T01:54:37.842Z,12.62
2022-10-05T01:57:17.352Z,12.54
2022-10-05T02:00:06.200Z,12.44
2022-10-05T02:02:46.059Z,12.51
2022-10-05T02:05:21.467Z,12.51
2022-10-05T02:07:54.501Z,12.62
2022-10-05T02:10:26.455Z,12.53
2022-10-05T02:12:58.897Z,12.27
2022-10-05T02:15:30.249Z,12.34
2022-10-05T02:18:05.565Z,12.51
2022-10-05T02:20:33.208Z,12.42
2022-10-05T02:23:07.494Z,12.53
2022-10-05T02:25:37.909Z,12.50
2022-10-05T02:28:19.635Z,12.54
2022-10-05T02:31:08.889Z,12.59
2022-10-05T02:33:36.827Z,12.58
2022-10-05T02:36:12.765Z,12.47
2022-10-05T02:39:18.808Z,12.36
2022-10-05T02:41:53.592Z,12.47
2022-10-05T02:44:43.912Z,12.56
2022-10-05T02:47:21.873Z,12.50
2022-10-05T02:50:01.975Z,12.45
2022-10-05T02:52:42.038Z,12.48
2022-10-05T02:55:18.218Z,12.57
2022-10-05T02:58:14.237Z,12.61
2022-10-05T03:00:49.559Z,12.53
2022-10-05T03:03:40.108Z,12.52
2022-10-05T03:06:15.761Z,12.51
2022-10-05T03:08:58.682Z,12.50
2022-10-05T03:12:03.384Z,12.54
2022-10-05T03:15:09.601Z,12.48
2022-10-05T03:17:46.273Z,12.26
2022-10-05T03:20:49.865Z,12.46
2022-10-05T03:23:53.927Z,12.55
2022-10-05T03:26:33.735Z,12.63
2022-10-05T03:29:24.601Z,12.69
2022-10-05T03:32:23.266Z,12.73
2022-10-05T03:34:57.165Z,12.67
2022-10-05T03:37:43.215Z,12.61
2022-10-05T03:40:19.770Z,12.64
2022-10-05T03:43:04.241Z,12.68
2022-10-05T03:45:47.525Z,12.64
2022-10-05T03:48:21.622Z,12.73
2022-10-05T03:51:08.203Z,12.68
2022-10-05T03:53:42.477Z,12.67
2022-10-05T03:56:10.421Z,12.78
2022-10-05T03:59:18.876Z,12.82
2022-10-05T04:01:54.595Z,12.76
2022-10-05T04:04:31.759Z,12.76
2022-10-05T04:07:00.268Z,12.71
2022-10-05T04:09:37.497Z,12.63
2022-10-05T04:12:25.451Z,12.55
2022-10-05T04:14:57.741Z,12.31
2022-10-05T04:17:32.998Z,12.34
2022-10-05T04:20:06.235Z,12.18
2022-10-05T04:22:58.778Z,12.11
2022-10-05T04:25:40.398Z,12.05
2022-10-05T04:28:17.261Z,12.11
2022-10-05T04:30:48.126Z,12.08
2022-10-05T04:33:16.239Z,12.02
2022-10-05T04:36:05.392Z,11.98
2022-10-05T04:38:45.526Z,12.10
2022-10-05T04:41:25.127Z,12.15
2022-10-05T04:44:21.193Z,12.14
2022-10-05T04:47:14.166Z,12.24
2022-10-05T04:49:44.869Z,12.21
2022-10-05T04:52:35.269Z,12.24
2022-10-05T04:55:29.277Z,12.27
2022-10-05T04:58:09.182Z,12.44
2022-10-05T05:01:07.438Z,12.40
2022-10-05T05:03:51.104Z,12.33
2022-10-05T05:06:31.535Z,12.34
2022-10-05T05:09:24.304Z,12.37
2022-10-05T05:11:59.121Z,12.39
2022-10-05T05:14:38.738Z,12.38
2022-10-05T05:17:35.220Z,12.30
2022-10-05T05:20:15.249Z,12.43
2022-10-05T05:23:05.140Z,12.45
2022-10-05T05:25:43.315Z,12.47
2022-10-05T05:28:20.346Z,12.45
2022-10-05T05:31:02.266Z,12.64
2022-10-05T05:34:02.554Z,12.69
2022-10-05T05:36:39.203Z,12.74
2022-10-05T05:39:15.842Z,12.76
2022-10-05T05:42:17.861Z,12.87
2022-10-05T05:44:50.823Z,12.92
2022-10-05T05:47:26.961Z,12.98
2022-10-05T05:50:24.380Z,13.02
2022-10-05T05:53:01.333Z,13.17
2022-10-05T05:55:36.300Z,13.55
2022-10-05T05:58:22.297Z,13.56
2022-10-05T06:00:58.647Z,13.60
2022-10-05T06:03:50.560Z,13.97
2022-10-05T06:06:18.858Z,14.08
2022-10-05T06:08:53.320Z,14.06
2022-10-05T06:11:23.995Z,13.91
2022-10-05T06:13:52.170Z,13.88
2022-10-05T06:16:25.393Z,13.90
2022-10-05T06:19:04.946Z,13.92
2022-10-05T06:21:43.218Z,13.94
2022-10-05T06:24:43.758Z,13.94
2022-10-05T06:27:37.204Z,13.88
2022-10-05T06:30:15.606Z,13.80
2022-10-05T06:32:46.556Z,13.82
2022-10-05T06:35:30.729Z,13.84
2022-10-05T06:38:28.971Z,14.13
2022-10-05T06:41:04.428Z,14.25
2022-10-05T06:44:01.013Z,14.30
2022-10-05T06:46:55.130Z,14.46
2022-10-05T06:49:42.494Z,14.56
2022-10-05T06:52:30.327Z,14.67
2022-10-05T06:55:14.070Z,14.78
2022-10-05T06:58:20.865Z,14.94
2022-10-05T07:00:54.894Z,14.92
2022-10-05T07:03:41.544Z,14.90
2022-10-05T07:06:25.049Z,15.03
2022-10-05T07:09:02.222Z,15.09
2022-10-05T07:11:52.725Z,15.37
2022-10-05T07:14:39.014Z,15.19
2022-10-05T07:17:25.909Z,15.32
2022-10-05T07:20:22.684Z,15.57
2022-10-05T07:22:56.805Z,15.55
2022-10-05T07:25:31.586Z,15.41
2022-10-05T07:28:24.074Z,15.32
2022-10-05T07:31:09.740Z,15.56
2022-10-05T07:33:44.967Z,15.45
2022-10-05T07:36:32.378Z,15.57
2022-10-05T07:39:05.275Z,15.61
2022-10-05T07:41:51.810Z,15.72
2022-10-05T07:44:48.508Z,15.86
2022-10-05T07:47:35.522Z,15.88
2022-10-05T07:50:21.176Z,15.45
2022-10-05T07:52:56.547Z,15.59
2022-10-05T07:55:34.103Z,15.48
2022-10-05T07:58:06.267Z,15.45
2022-10-05T08:00:52.594Z,15.77
2022-10-05T08:03:23.453Z,16.03
2022-10-05T08:05:51.122Z,16.13
2022-10-05T08:08:52.553Z,16.07
2022-10-05T08:11:31.853Z,15.96
2022-10-05T08:14:08.180Z,15.81
2022-10-05T08:16:38.143Z,16.12
2022-10-05T08:19:23.361Z,15.93
2022-10-05T08:21:55.743Z,16.22
2022-10-05T08:24:23.100Z,16.48
2022-10-05T08:27:06.881Z,16.47
2022-10-05T08:29:52.843Z,16.90
2022-10-05T08:32:26.391Z,16.84
2022-10-05T08:35:25.370Z,16.63
2022-10-05T08:37:53.568Z,16.39
2022-10-05T08:40:26.918Z,16.38
2022-10-05T08:43:09.648Z,16.41
2022-10-05T08:46:07.675Z,16.73
2022-10-05T08:48:57.211Z,16.57
2022-10-05T08:51:51.799Z,16.78
2022-10-05T08:54:19.354Z,16.71
2022-10-05T08:56:58.674Z,16.81
2022-10-05T09:00:01.433Z,17.01
2022-10-05T09:02:47.237Z,16.70
2022-10-05T09:05:14.889Z,17.18
2022-10-05T09:08:20.754Z,17.36
2022-10-05T09:11:09.764Z,17.80
2022-10-05T09:14:17.444Z,17.79
2022-10-05T09:16:53.095Z,17.53
2022-10-05T09:19:48.190Z,17.49
2022-10-05T09:22:25.039Z,17.85
2022-10-05T09:25:00.440Z,17.39
2022-10-05T09:27:36.655Z,17.67
2022-10-05T09:30:12.987Z,17.48
2022-10-05T09:32:58.919Z,18.09
2022-10-05T09:36:04.217Z,17.55
2022-10-05T09:38:40.695Z,17.18
2022-10-05T09:41:29.153Z,17.65
2022-10-05T09:44:11.296Z,17.97
2022-10-05T09:46:51.470Z,18.34
2022-10-05T09:49:57.098Z,18.51
2022-10-05T09:52:32.617Z,18.25
2022-10-05T09:55:22.073Z,18.15
2022-10-05T09:58:17.092Z,17.96
2022-10-05T10:01:09.804Z,18.05
2022-10-05T10:03:43.199Z,18.46
2022-10-05T10:06:19.136Z,18.63
2022-10-05T10:08:50.651Z,18.62
2022-10-05T10:11:41.168Z,18.00
2022-10-05T10:14:11.525Z,18.31
2022-10-05T10:17:11.002Z,18.37
2022-10-05T10:20:15.803Z,18.74
2022-10-05T10:22:50.456Z,18.48
2022-10-05T10:25:49.411Z,18.33
2022-10-05T10:28:43.787Z,18.29
2022-10-05T10:31:26.728Z,18.73
2022-10-05T10:34:24.842Z,18.55
2022-10-05T10:37:21.665Z,18.43
2022-10-05T10:40:04.384Z,18.39
2022-10-05T10:42:44.018Z,18.23
2022-10-05T10:45:17.520Z,18.15
2022-10-05T10:47:52.804Z,18.22
2022-10-05T10:50:39.886Z,18.73
2022-10-05T10:53:07.532Z,18.85
2022-10-05T10:55:48.041Z,18.80
2022-10-05T10:58:43.911Z,19.08
2022-10-05T11:01:35.029Z,18.33
2022-10-05T11:04:21.170Z,18.55
2022-10-05T11:07:19.472Z,18.44
2022-10-05T11:09:59.314Z,18.49
2022-10-05T11:12:35.830Z,18.77
2022-10-05T11:15:47.936Z,18.72
2022-10-05T11:18:26.387Z,19.20
2022-10-05T11:21:09.910Z,18.77
2022-10-05T11:23:56.213Z,18.47
2022-10-05T11:26:46.628Z,18.95
2022-10-05T11:29:33.265Z,18.42
2022-10-05T11:32:19.248Z,18.89
2022-10-05T11:35:08.675Z,19.18
2022-10-05T11:37:59.027Z,19.01
2022-10-05T11:40:29.505Z,18.68
2022-10-05T11:43:22.302Z,18.75
2022-10-05T11:46:17.338Z,19.15
2022-10-05T11:49:04.724Z,19.16
2022-10-05T11:51:38.943Z,19.76
2022-10-05T11:54:10.086Z,19.51
2022-10-05T11:57:15.845Z,19.17
2022-10-05T11:59:50.040Z,19.38
2022-10-05T12:02:53.095Z,19.49
2022-10-05T12:05:36.086Z,19.68
2022-10-05T12:08:15.969Z,19.64
2022-10-05T12:11:15.237Z,19.88
2022-10-05T12:13:58.150Z,19.89
2022-10-05T12:16:34.803Z,19.54
2022-10-05T12:19:13.501Z,19.21
2022-10-05T12:21:45.916Z,19.67
2022-10-05T12:24:25.938Z,19.53
2022-10-05T12:27:05.265Z,19.58
2022-10-05T12:29:39.469Z,19.54
2022-10-05T12:32:19.313Z,19.97
2022-10-05T12:35:01.786Z,20.45
2022-10-05T12:37:49.069Z,19.88
2022-10-05T12:40:28.571Z,19.54
2022-10-05T12:43:11.574Z,19.78
2022-10-05T12:45:46.251Z,20.05
2022-10-05T12:48:18.809Z,19.77
2022-10-05T12:50:50.565Z,19.87
2022-10-05T12:53:42.132Z,19.60
2022-10-05T12:56:12.067Z,19.89
2022-10-05T12:58:48.849Z,19.74
2022-10-05T13:01:38.372Z,19.66
2022-10-05T13:04:24.374Z,19.71
2022-10-05T13:07:27.054Z,20.25
2022-10-05T13:10:03.733Z,20.29
2022-10-05T13:12:56.941Z,20.18
2022-10-05T13:15:31.528Z,19.90
2022-10-05T13:18:36.755Z,20.25
2022-10-05T13:21:13.992Z,20.82
2022-10-05T13:24:06.964Z,20.33
2022-10-05T13:26:37.185Z,19.90
2022-10-05T13:29:10.889Z,20.27
2022-10-05T13:31:45.163Z,19.65
2022-10-05T13:34:36.185Z,19.71
2022-10-05T13:37:06.359Z,20.04
2022-10-05T13:39:45.920Z,20.25
2022-10-05T13:42:17.636Z,20.62
2022-10-05T13:44:50.977Z,20.30
2022-10-05T13:47:39.129Z,20.45
2022-10-05T13:50:19.517Z,19.58
2022-10-05T13:53:11.567Z,20.36
2022-10-05T13:55:47.760Z,20.39
2022-10-05T13:58:21.232Z,20.46
2022-10-05T14:01:13.451Z,20.38
2022-10-05T14:03:41.398Z,20.04
2022-10-05T14:06:30.685Z,20.37
2022-10-05T14:08:59.954Z,20.50
2022-10-05T14:11:31.573Z,20.78
2022-10-05T14:14:26.543Z,20.42
2022-10-05T14:16:56.662Z,20.57
2022-10-05T14:19:27.175Z,20.72
2022-10-05T14:22:01.606Z,20.72
2022-10-05T14:24:43.759Z,20.77
2022-10-05T14:27:26.548Z,20.79
2022-10-05T14:29:57.787Z,21.06
2022-10-05T14:32:27.342Z,21.27
2022-10-05T14:35:15.434Z,20.65
2022-10-05T14:37:50.376Z,21.04
2022-10-05T14:40:38.134Z,20.87
2022-10-05T14:43:14.612Z,21.09
2022-10-05T14:46:02.660Z,21.07
2022-10-05T14:48:44.573Z,20.94
2022-10-05T14:51:28.402Z,20.92
2022-10-05T14:54:14.943Z,20.82
2022-10-05T14:56:48.401Z,20.77
2022-10-05T14:59:50.386Z,20.71
2022-10-05T15:02:33.495Z,20.93
2022-10-05T15:05:03.609Z,20.96
2022-10-05T15:07:36.158Z,20.98
2022-10-05T15:10:27.003Z,20.91
2022-10-05T15:12:59.059Z,20.95
2022-10-05T15:15:29.448Z,20.99
2022-10-05T15:18:00.653Z,20.53
2022-10-05T15:20:36.046Z,20.73
2022-10-05T15:23:32.880Z,20.79
2022-10-05T15:26:15.704Z,20.47
2022-10-05T15:29:02.105Z,20.22
2022-10-05T15:31:51.983Z,20.59
2022-10-05T15:34:25.841Z,20.59
2022-10-05T15:37:07.173Z,20.53
2022-10-05T15:39:38.934Z,20.54
2022-10-05T15:42:15.867Z,20.54
2022-10-05T15:44:50.023Z,20.41
2022-10-05T15:47:54.570Z,20.30
2022-10-05T15:50:46.605Z,20.29
2022-10-05T15:53:13.963Z,20.34
2022-10-05T15:55:41.611Z,20.28
2022-10-05T15:58:21.278Z,20.27
2022-10-05T16:00:57.817Z,20.01
2022-10-05T16:03:51.426Z,20.01
2022-10-05T16:06:57.432Z,19.84
2022-10-05T16:09:41.205Z,19.96
2022-10-05T16:12:09.697Z,19.98
2022-10-05T16:14:46.235Z,19.82
2022-10-05T16:17:41.004Z,20.06
2022-10-05T16:20:27.500Z,20.05
2022-10-05T16:23:08.146Z,19.96
2022-10-05T16:26:07.861Z,19.93
2022-10-05T16:28:47.612Z,19.86
2022-10-05T16:31:23.403Z,19.93
2022-10-05T16:34:17.133Z,19.89
2022-10-05T16:36:54.788Z,19.96
2022-10-05T16:39:44.101Z,19.91
2022-10-05T16:42:18.796Z,19.89
2022-10-05T16:45:12.362Z,19.82
2022-10-05T16:47:58.946Z,19.86
2022-10-05T16:50:49.648Z,19.83
2022-10-05T16:54:06.838Z,19.81
2022-10-05T16:56:42.607Z,19.77
2022-10-05T16:59:37.913Z,19.71
2022-10-05T17:02:53.271Z,19.72
2022-10-05T17:06:15.476Z,19.50
2022-10-05T17:08:59.126Z,19.52
2022-10-05T17:11:49.266Z,19.50
2022-10-05T17:14:32.595Z,19.54
2022-10-05T17:17:29.985Z,19.52
2022-10-05T17:20:07.086Z,19.37
2022-10-05T17:22:46.473Z,19.41
2022-10-05T17:25:28.799Z,19.44
2022-10-05T17:28:15.431Z,19.36
2022-10-05T17:31:07.678Z,19.34
2022-10-05T17:34:13.125Z,19.36
2022-10-05T17:36:41.609Z,19.35
2022-10-05T17:39:19.813Z,19.26
2022-10-05T17:41:47.891Z,19.27
2022-10-05T17:44:19.005Z,19.24
2022-10-05T17:47:00.454Z,19.17
2022-10-05T17:49:46.982Z,19.19
2022-10-05T17:52:41.715Z,19.15
2022-10-05T17:55:26.097Z,19.14
2022-10-05T17:57:59.701Z,19.07
2022-10-05T18:00:29.362Z,19.06
2022-10-05T18:02:58.269Z,19.03
2022-10-05T18:05:30.230Z,19.02
2022-10-05T18:08:13.306Z,18.97
2022-10-05T18:11:06.122Z,18.91
2022-10-05T18:13:35.974Z,18.79
2022-10-05T18:16:04.236Z,18.76
2022-10-05T18:18:33.489Z,18.68
2022-10-05T18:21:20.485Z,18.66
2022-10-05T18:24:14.352Z,18.59
2022-10-05T18:26:57.665Z,18.60
2022-10-05T18:29:55.002Z,18.45
2022-10-05T18:32:38.057Z,18.61
2022-10-05T18:35:28.222Z,18.68
2022-10-05T18:37:59.575Z,18.59
2022-10-05T18:40:50.655Z,18.73
2022-10-05T18:43:37.226Z,18.61
2022-10-05T18:46:19.864Z,18.69
2022-10-05T18:48:55.035Z,18.50
2022-10-05T18:51:31.445Z,18.35
2022-10-05T18:54:25.917Z,18.33
2022-10-05T18:56:53.583Z,18.54
2022-10-05T18:59:39.668Z,18.45
2022-10-05T19:02:07.122Z,18.49
2022-10-05T19:05:03.414Z,18.54
2022-10-05T19:08:01.546Z,18.64
2022-10-05T19:10:52.863Z,18.57
2022-10-05T19:13:42.341Z,18.63
2022-10-05T19:16:35.722Z,18.63
2022-10-05T19:19:12.897Z,18.66
2022-10-05T19:21:47.837Z,18.63
2022-10-05T19:24:37.563Z,18.56
2022-10-05T19:27:28.736Z,18.63
2022-10-05T19:30:10.457Z,18.58
2022-10-05T19:32:46.735Z,18.61
2022-10-05T19:35:31.102Z,18.58
2022-10-05T19:38:37.328Z,18.55
2022-10-05T19:41:32.083Z,18.51
2022-10-05T19:44:09.013Z,18.46
2022-10-05T19:47:22.293Z,18.44
2022-10-05T19:49:52.887Z,18.40
2022-10-05T19:52:28.488Z,18.38
2022-10-05T19:55:11.550Z,18.36
2022-10-05T19:57:56.624Z,18.31
2022-10-05T20:00:27.270Z,18.30
2022-10-05T20:03:18.014Z,18.30
2022-10-05T20:05:45.609Z,18.22
2022-10-05T20:08:18.390Z,18.23
2022-10-05T20:11:03.357Z,18.21
2022-10-05T20:13:33.519Z,18.21
2022-10-05T20:16:32.066Z,18.06
2022-10-05T20:19:18.607Z,18.17
2022-10-05T20:21:56.552Z,18.12
2022-10-05T20:24:26.553Z,18.09
2022-10-05T20:27:02.754Z,18.02
2022-10-05T20:29:41.568Z,17.96
2022-10-05T20:32:11.094Z,17.87
2022-10-05T20:34:43.658Z,17.76
2022-10-05T20:37:17.359Z,17.63
2022-10-05T20:39:45.460Z,17.56
2022-10-05T20:42:12.980Z,17.55
2022-10-05T20:44:40.787Z,17.45
2022-10-05T20:47:11.375Z,17.41
2022-10-05T20:49:41.159Z,17.25
2022-10-05T20:52:10.892Z,17.22
2022-10-05T20:54:39.171Z,17.20
2022-10-05T20:57:07.231Z,17.08
2022-10-05T20:59:35.946Z,17.08
2022-10-05T21:02:04.125Z,17.00
2022-10-05T21:04:40.283Z,16.95
2022-10-05T21:07:09.274Z,17.05
2022-10-05T21:09:38.546Z,17.04
2022-10-05T21:12:06.106Z,17.03
2022-10-05T21:14:36.231Z,17.02
2022-10-05T21:17:05.095Z,16.64
2022-10-05T21:19:38.218Z,16.85
2022-10-05T21:22:07.526Z,16.87
2022-10-05T21:24:36.377Z,16.78
2022-10-05T21:27:04.584Z,16.68
2022-10-05T21:29:34.002Z,16.65
2022-10-05T21:32:01.657Z,16.52
2022-10-05T21:34:29.134Z,16.55
2022-10-05T21:36:56.877Z,16.28
2022-10-05T21:39:24.857Z,16.34
2022-10-05T21:41:52.299Z,16.33
2022-10-05T21:44:20.026Z,16.26
2022-10-05T21:46:48.344Z,16.29
2022-10-05T21:49:18.958Z,16.17
2022-10-05T21:51:47.578Z,16.22
2022-10-05T21:54:20.285Z,16.18
2022-10-05T21:56:52.071Z,16.15
2022-10-05T21:59:21.590Z,16.16
2022-10-05T22:01:49.343Z,16.16
2022-10-05T22:04:17.333Z,16.10
2022-10-05T22:06:44.818Z,16.05
2022-10-05T22:09:12.325Z,16.01
2022-10-05T22:11:40.153Z,16.01
2022-10-05T22:14:07.661Z,15.90
2022-10-05T22:16:37.320Z,15.82
2022-10-05T22:19:07.529Z,15.92
2022-10-05T22:21:41.579Z,15.88
2022-10-05T22:24:11.486Z,15.69
2022-10-05T22:26:40.835Z,15.79
2022-10-05T22:29:09.651Z,15.76
2022-10-05T22:31:37.929Z,15.71
2022-10-05T22:34:05.783Z,15.62
2022-10-05T22:36:36.533Z,15.57
2022-10-05T22:39:04.435Z,15.55
2022-10-05T22:41:31.884Z,15.63
2022-10-05T22:44:00.187Z,15.69
2022-10-05T22:46:27.993Z,15.66
2022-10-05T22:48:55.598Z,15.64
2022-10-05T22:51:23.191Z,15.64
2022-10-05T22:53:51.019Z,15.61
2022-10-05T22:56:18.599Z,15.52
2022-10-05T22:58:46.361Z,15.50
2022-10-05T23:01:16.558Z,15.47
2022-10-05T23:03:44.613Z,15.43
2022-10-05T23:06:14.335Z,15.48
2022-10-05T23:08:42.813Z,15.33
2022-10-05T23:11:15.849Z,15.42
2022-10-05T23:13:44.209Z,15.39
2022-10-05T23:16:14.007Z,15.38
2022-10-05T23:18:41.661Z,15.43
2022-10-05T23:21:10.479Z,15.46
2022-10-05T23:23:39.537Z,15.47
2022-10-05T23:26:09.008Z,15.34
2022-10-05T23:28:38.997Z,15.47
2022-10-05T23:31:08.085Z,15.52
2022-10-05T23:33:35.771Z,15.38
2022-10-05T23:36:09.188Z,15.38
2022-10-05T23:38:36.640Z,15.42
2022-10-05T23:41:05.369Z,15.40
2022-10-05T23:43:33.478Z,15.40
2022-10-05T23:46:01.802Z,15.39
2022-10-05T23:48:30.458Z,15.41
2022-10-05T23:50:59.360Z,15.31
2022-10-05T23:53:26.882Z,15.39
2022-10-05T23:55:55.545Z,15.30
2022-10-05T23:58:23.383Z,15.44
